createdAt,value
2022-09-13T00:00:01.131Z,22
2022-09-13T00:01:01.157Z,21
2022-09-13T00:02:01.122Z,19
2022-09-13T00:03:01.117Z,16
2022-09-13T00:04:01.091Z,15
2022-09-13T00:05:01.122Z,17
2022-09-13T00:06:01.093Z,18
2022-09-13T00:07:01.102Z,17
2022-09-13T00:09:01.094Z,18
2022-09-13T00:10:01.169Z,17
2022-09-13T00:11:01.094Z,16
2022-09-13T00:12:01.093Z,18
2022-09-13T00:13:01.095Z,19
2022-09-13T00:14:01.093Z,18
2022-09-13T00:15:01.129Z,17
2022-09-13T00:16:01.136Z,15
2022-09-13T00:19:01.126Z,17
2022-09-13T00:20:01.129Z,19
2022-09-13T00:21:01.093Z,21
2022-09-13T00:24:01.094Z,20
2022-09-13T00:25:01.127Z,19
2022-09-13T00:27:01.094Z,17
2022-09-13T00:28:01.094Z,18
2022-09-13T00:29:01.092Z,17
2022-09-13T00:30:01.127Z,18
2022-09-13T00:31:01.094Z,16
2022-09-13T00:32:01.148Z,17
2022-09-13T00:34:01.101Z,15
2022-09-13T00:35:01.162Z,14
2022-09-13T00:36:01.095Z,16
2022-09-13T00:40:01.165Z,18
2022-09-13T00:41:01.096Z,19
2022-09-13T00:43:01.096Z,18
2022-09-13T00:44:01.096Z,19
2022-09-13T00:45:01.125Z,19
2022-09-13T00:46:01.111Z,18
2022-09-13T00:47:01.095Z,19
2022-09-13T00:48:01.101Z,20
2022-09-13T00:49:01.096Z,21
2022-09-13T00:50:01.132Z,19
2022-09-13T00:53:01.167Z,18
2022-09-13T00:55:01.080Z,19
2022-09-13T00:56:01.079Z,21
2022-09-13T00:58:01.079Z,20
2022-09-13T00:59:01.080Z,21
2022-09-13T01:00:01.081Z,19
2022-09-13T01:02:01.239Z,21
2022-09-13T01:03:01.079Z,22
2022-09-13T01:04:01.083Z,20
2022-09-13T01:06:01.081Z,17
2022-09-13T01:07:01.081Z,16
2022-09-13T01:08:01.084Z,15
2022-09-13T01:09:01.118Z,16
2022-09-13T01:10:01.080Z,17
2022-09-13T01:12:01.145Z,16
2022-09-13T01:13:01.083Z,17
2022-09-13T01:15:01.079Z,15
2022-09-13T01:16:01.133Z,14
2022-09-13T01:17:01.081Z,15
2022-09-13T01:18:01.079Z,14
2022-09-13T01:19:01.082Z,15
2022-09-13T01:20:01.080Z,16
2022-09-13T01:21:01.081Z,18
2022-09-13T01:24:01.084Z,17
2022-09-13T01:26:01.106Z,16
2022-09-13T01:27:01.083Z,17
2022-09-13T01:28:01.082Z,18
2022-09-13T01:29:01.084Z,19
2022-09-13T01:30:01.082Z,20
2022-09-13T01:33:01.210Z,17
2022-09-13T01:34:01.080Z,16
2022-09-13T01:35:01.082Z,15
2022-09-13T01:36:01.083Z,16
2022-09-13T01:37:01.083Z,15
2022-09-13T01:38:01.080Z,17
2022-09-13T01:43:01.170Z,16
2022-09-13T01:44:01.081Z,17
2022-09-13T01:45:01.110Z,17
2022-09-13T01:46:01.133Z,18
2022-09-13T01:47:01.082Z,19
2022-09-13T01:48:01.083Z,20
2022-09-13T01:50:01.084Z,19
2022-09-13T01:51:01.082Z,17
2022-09-13T01:52:01.083Z,15
2022-09-13T01:53:01.082Z,13
2022-09-13T01:55:01.083Z,15
2022-09-13T01:56:01.088Z,16
2022-09-13T01:57:01.083Z,17
2022-09-13T02:00:01.134Z,17
2022-09-13T02:01:01.117Z,16
2022-09-13T02:02:01.160Z,17
2022-09-13T02:03:01.083Z,18
2022-09-13T02:06:01.082Z,17
2022-09-13T02:08:01.085Z,18
2022-09-13T02:09:01.085Z,16
2022-09-13T02:10:02.109Z,17
2022-09-13T02:11:01.083Z,18
2022-09-13T02:13:01.087Z,17
2022-09-13T02:14:01.086Z,19
2022-09-13T02:15:01.084Z,19
2022-09-13T02:17:01.108Z,17
2022-09-13T02:18:01.085Z,16
2022-09-13T02:19:01.085Z,15
2022-09-13T02:21:01.213Z,17
2022-09-13T02:22:01.087Z,18
2022-09-13T02:23:01.083Z,19
2022-09-13T02:24:01.085Z,17
2022-09-13T02:25:01.086Z,18
2022-09-13T02:26:01.086Z,16
2022-09-13T02:29:01.084Z,19
2022-09-13T02:30:01.085Z,17
2022-09-13T02:33:01.202Z,16
2022-09-13T02:35:01.083Z,18
2022-09-13T02:36:01.121Z,19
2022-09-13T02:37:01.083Z,20
2022-09-13T02:38:01.088Z,21
2022-09-13T02:39:01.084Z,19
2022-09-13T02:40:01.131Z,17
2022-09-13T02:41:01.088Z,16
2022-09-13T02:42:01.085Z,15
2022-09-13T02:43:01.083Z,16
2022-09-13T02:44:01.085Z,15
2022-09-13T02:45:01.085Z,16
2022-09-13T02:47:01.118Z,17
2022-09-13T02:48:01.087Z,16
2022-09-13T02:50:01.105Z,18
2022-09-13T02:51:01.087Z,17
2022-09-13T02:54:01.109Z,16
2022-09-13T02:55:01.082Z,15
2022-09-13T02:57:01.082Z,14
2022-09-13T02:58:01.110Z,16
2022-09-13T02:59:01.096Z,19
2022-09-13T03:00:01.084Z,18
2022-09-13T03:01:01.130Z,19
2022-09-13T03:02:01.146Z,21
2022-09-13T03:03:01.122Z,19
2022-09-13T03:04:01.084Z,17
2022-09-13T03:06:01.106Z,18
2022-09-13T03:07:01.083Z,17
2022-09-13T03:08:01.111Z,18
2022-09-13T03:09:01.086Z,19
2022-09-13T03:10:01.083Z,22
2022-09-13T03:11:01.084Z,19
2022-09-13T03:13:01.444Z,18
2022-09-13T03:14:01.084Z,16
2022-09-13T03:15:01.083Z,14
2022-09-13T03:16:01.084Z,15
2022-09-13T03:18:01.084Z,16
2022-09-13T03:19:01.113Z,17
2022-09-13T03:20:01.086Z,19
2022-09-13T03:22:01.174Z,20
2022-09-13T03:23:01.094Z,18
2022-09-13T03:24:01.116Z,16
2022-09-13T03:26:01.092Z,15
2022-09-13T03:28:01.087Z,18
2022-09-13T03:29:01.116Z,21
2022-09-13T03:30:01.089Z,21
2022-09-13T03:32:01.225Z,20
2022-09-13T03:34:01.130Z,18
2022-09-13T03:35:01.087Z,19
2022-09-13T03:37:01.091Z,17
2022-09-13T03:41:01.210Z,16
2022-09-13T03:42:01.090Z,17
2022-09-13T03:43:01.089Z,18
2022-09-13T03:45:01.118Z,16
2022-09-13T03:47:01.089Z,17
2022-09-13T03:48:01.088Z,16
2022-09-13T03:49:01.088Z,15
2022-09-13T03:50:01.088Z,16
2022-09-13T03:51:01.088Z,18
2022-09-13T03:53:01.153Z,19
2022-09-13T03:54:01.090Z,20
2022-09-13T03:55:01.154Z,18
2022-09-13T03:56:01.091Z,17
2022-09-13T03:57:01.115Z,18
2022-09-13T03:58:01.091Z,17
2022-09-13T03:59:01.092Z,16
2022-09-13T04:00:01.096Z,17
2022-09-13T04:01:01.163Z,19
2022-09-13T04:04:01.096Z,18
2022-09-13T04:05:01.093Z,19
2022-09-13T04:06:01.092Z,17
2022-09-13T04:07:01.092Z,16
2022-09-13T04:08:01.093Z,15
2022-09-13T04:11:01.156Z,14
2022-09-13T04:12:01.091Z,16
2022-09-13T04:13:01.115Z,18
2022-09-13T04:15:01.093Z,17
2022-09-13T04:16:01.143Z,18
2022-09-13T04:17:01.092Z,17
2022-09-13T04:18:01.092Z,16
2022-09-13T04:20:01.094Z,17
2022-09-13T04:21:01.094Z,16
2022-09-13T04:22:01.099Z,17
2022-09-13T04:25:02.485Z,19
2022-09-13T04:26:01.096Z,18
2022-09-13T04:27:01.094Z,17
2022-09-13T04:28:01.095Z,18
2022-09-13T04:30:01.116Z,16
2022-09-13T04:32:01.220Z,17
2022-09-13T04:33:01.093Z,16
2022-09-13T04:35:01.093Z,18
2022-09-13T04:36:01.094Z,19
2022-09-13T04:39:01.094Z,18
2022-09-13T04:40:01.121Z,16
2022-09-13T04:41:01.096Z,17
2022-09-13T04:42:01.094Z,16
2022-09-13T04:43:01.093Z,17
2022-09-13T04:45:01.158Z,16
2022-09-13T04:46:01.358Z,15
2022-09-13T04:47:01.095Z,17
2022-09-13T04:49:01.093Z,16
2022-09-13T04:50:01.091Z,17
2022-09-13T04:51:01.093Z,18
2022-09-13T04:52:01.098Z,17
2022-09-13T04:53:01.092Z,16
2022-09-13T04:54:01.093Z,17
2022-09-13T04:58:01.096Z,16
2022-09-13T04:59:01.095Z,17
2022-09-13T05:00:01.094Z,19
2022-09-13T05:01:01.138Z,18
2022-09-13T05:03:01.116Z,19
2022-09-13T05:04:01.093Z,18
2022-09-13T05:05:01.093Z,16
2022-09-13T05:08:01.093Z,17
2022-09-13T05:09:01.094Z,16
2022-09-13T05:10:01.093Z,19
2022-09-13T05:11:01.093Z,17
2022-09-13T05:14:01.094Z,19
2022-09-13T05:15:01.342Z,16
2022-09-13T05:16:01.139Z,17
2022-09-13T05:17:01.093Z,18
2022-09-13T05:19:01.128Z,16
2022-09-13T05:21:01.222Z,17
2022-09-13T05:22:01.096Z,16
2022-09-13T05:25:01.123Z,17
2022-09-13T05:26:01.095Z,16
2022-09-13T05:27:01.099Z,17
2022-09-13T05:28:01.095Z,15
2022-09-13T05:29:01.098Z,16
2022-09-13T05:30:01.145Z,16
2022-09-13T05:32:01.158Z,15
2022-09-13T05:33:01.095Z,16
2022-09-13T05:34:01.094Z,17
2022-09-13T05:36:01.117Z,18
2022-09-13T05:37:01.094Z,19
2022-09-13T05:38:01.097Z,18
2022-09-13T05:39:26.290Z,19
2022-09-13T05:40:11.014Z,21
2022-09-13T05:41:01.095Z,20
2022-09-13T05:42:01.098Z,19
2022-09-13T05:43:01.097Z,20
2022-09-13T05:45:01.125Z,19
2022-09-13T05:46:01.152Z,18
2022-09-13T05:47:01.095Z,17
2022-09-13T05:48:01.097Z,15
2022-09-13T05:49:01.106Z,14
2022-09-13T05:51:01.208Z,15
2022-09-13T05:52:01.112Z,16
2022-09-13T05:54:01.188Z,17
2022-09-13T05:55:01.080Z,18
2022-09-13T05:57:01.080Z,16
2022-09-13T05:58:01.080Z,17
2022-09-13T05:59:01.087Z,16
2022-09-13T06:00:01.086Z,15
2022-09-13T06:01:01.145Z,16
2022-09-13T06:02:01.138Z,17
2022-09-13T06:04:01.089Z,19
2022-09-13T06:05:01.083Z,20
2022-09-13T06:06:01.084Z,18
2022-09-13T06:07:01.082Z,19
2022-09-13T06:08:01.105Z,20
2022-09-13T06:09:01.083Z,18
2022-09-13T06:10:01.084Z,16
2022-09-13T06:11:01.083Z,17
2022-09-13T06:13:01.083Z,16
2022-09-13T06:14:01.083Z,18
2022-09-13T06:15:01.083Z,19
2022-09-13T06:16:01.108Z,18
2022-09-13T06:17:01.086Z,19
2022-09-13T06:19:01.089Z,17
2022-09-13T06:20:01.085Z,16
2022-09-13T06:21:01.103Z,17
2022-09-13T06:22:01.085Z,15
2022-09-13T06:23:01.087Z,16
2022-09-13T06:26:01.195Z,17
2022-09-13T06:27:01.086Z,18
2022-09-13T06:28:01.087Z,19
2022-09-13T06:29:01.092Z,20
2022-09-13T06:30:01.087Z,21
2022-09-13T06:31:01.133Z,20
2022-09-13T06:33:01.088Z,18
2022-09-13T06:35:01.102Z,17
2022-09-13T06:37:01.091Z,16
2022-09-13T06:38:01.092Z,17
2022-09-13T06:39:01.092Z,14
2022-09-13T06:40:01.170Z,15
2022-09-13T06:41:01.093Z,14
2022-09-13T06:42:01.120Z,15
2022-09-13T06:43:01.092Z,12
2022-09-13T06:44:01.100Z,14
2022-09-13T06:45:01.120Z,14
2022-09-13T06:46:01.205Z,17
2022-09-13T06:48:01.092Z,19
2022-09-13T06:49:01.093Z,21
2022-09-13T06:50:01.132Z,22
2022-09-13T06:51:01.094Z,21
2022-09-13T06:52:01.093Z,19
2022-09-13T06:53:01.094Z,18
2022-09-13T06:54:01.094Z,17
2022-09-13T06:55:01.127Z,16
2022-09-13T06:56:01.093Z,15
2022-09-13T06:57:01.100Z,16
2022-09-13T06:59:01.231Z,17
2022-09-13T07:00:01.142Z,18
2022-09-13T07:05:01.271Z,17
2022-09-13T07:06:01.094Z,18
2022-09-13T07:07:01.101Z,17
2022-09-13T07:08:01.110Z,16
2022-09-13T07:12:01.225Z,18
2022-09-13T07:15:01.116Z,17
2022-09-13T07:16:01.152Z,16
2022-09-13T07:18:01.080Z,17
2022-09-13T07:19:01.087Z,16
2022-09-13T07:20:01.086Z,17
2022-09-13T07:21:01.080Z,18
2022-09-13T07:23:01.081Z,17
2022-09-13T07:24:01.081Z,19
2022-09-13T07:25:01.082Z,21
2022-09-13T07:26:01.082Z,20
2022-09-13T07:27:01.083Z,21
2022-09-13T07:29:01.082Z,18
2022-09-13T07:30:01.081Z,18
2022-09-13T07:31:01.142Z,17
2022-09-13T07:35:01.087Z,15
2022-09-13T07:36:01.084Z,16
2022-09-13T07:39:01.108Z,17
2022-09-13T07:40:01.140Z,18
2022-09-13T07:42:01.189Z,19
2022-09-13T07:43:01.082Z,18
2022-09-13T07:45:01.086Z,19
2022-09-13T07:48:01.135Z,21
2022-09-13T07:49:01.089Z,22
2022-09-13T07:51:01.147Z,23
2022-09-13T07:52:01.082Z,21
2022-09-13T07:53:01.086Z,20
2022-09-13T07:54:01.112Z,18
2022-09-13T07:56:01.090Z,16
2022-09-13T07:57:01.084Z,18
2022-09-13T07:58:01.085Z,17
2022-09-13T07:59:01.168Z,16
2022-09-13T08:00:01.086Z,15
2022-09-13T08:01:01.164Z,16
2022-09-13T08:02:01.157Z,15
2022-09-13T08:03:01.085Z,16
2022-09-13T08:04:01.220Z,18
2022-09-13T08:09:01.118Z,17
2022-09-13T08:10:01.086Z,18
2022-09-13T08:11:01.087Z,17
2022-09-13T08:12:01.087Z,16
2022-09-13T08:13:01.091Z,17
2022-09-13T08:14:01.122Z,16
2022-09-13T08:15:01.085Z,15
2022-09-13T08:16:01.143Z,16
2022-09-13T08:17:01.085Z,17
2022-09-13T08:18:01.087Z,16
2022-09-13T08:19:01.085Z,17
2022-09-13T08:21:01.259Z,18
2022-09-13T08:25:01.086Z,19
2022-09-13T08:26:01.090Z,20
2022-09-13T08:27:01.084Z,21
2022-09-13T08:28:01.085Z,20
2022-09-13T08:29:01.086Z,19
2022-09-13T08:30:01.086Z,19
2022-09-13T08:32:01.214Z,17
2022-09-13T08:33:01.107Z,20
2022-09-13T08:34:01.089Z,18
2022-09-13T08:36:01.089Z,17
2022-09-13T08:37:01.199Z,20
2022-09-13T08:38:01.088Z,17
2022-09-13T08:39:01.087Z,18
2022-09-13T08:41:01.150Z,19
2022-09-13T08:42:01.086Z,16
2022-09-13T08:45:01.087Z,17
2022-09-13T08:48:01.085Z,19
2022-09-13T08:50:01.090Z,16
2022-09-13T08:51:01.084Z,17
2022-09-13T08:52:01.085Z,18
2022-09-13T08:53:01.215Z,16
2022-09-13T08:54:01.085Z,17
2022-09-13T08:55:01.111Z,20
2022-09-13T08:56:01.090Z,19
2022-09-13T08:59:01.084Z,20
2022-09-13T09:00:01.126Z,17
2022-09-13T09:01:01.150Z,18
2022-09-13T09:04:01.085Z,15
2022-09-13T09:07:01.121Z,14
2022-09-13T09:08:01.088Z,16
2022-09-13T09:09:01.174Z,17
2022-09-13T09:10:01.087Z,19
2022-09-13T09:11:01.115Z,17
2022-09-13T09:13:01.087Z,18
2022-09-13T09:14:01.089Z,17
2022-09-13T09:15:01.089Z,16
2022-09-13T09:16:01.154Z,18
2022-09-13T09:17:01.089Z,19
2022-09-13T09:18:01.086Z,18
2022-09-13T09:19:01.086Z,17
2022-09-13T09:20:01.092Z,19
2022-09-13T09:21:01.114Z,17
2022-09-13T09:23:01.087Z,16
2022-09-13T09:25:01.111Z,15
2022-09-13T09:27:01.085Z,14
2022-09-13T09:28:01.086Z,15
2022-09-13T09:29:01.095Z,16
2022-09-13T09:30:01.086Z,16
2022-09-13T09:31:01.226Z,17
2022-09-13T09:36:01.115Z,16
2022-09-13T09:38:01.086Z,17
2022-09-13T09:40:01.127Z,20
2022-09-13T09:45:01.175Z,19
2022-09-13T09:47:01.090Z,18
2022-09-13T09:48:01.084Z,17
2022-09-13T09:49:01.084Z,18
2022-09-13T09:50:01.086Z,17
2022-09-13T09:51:01.091Z,16
2022-09-13T09:52:01.088Z,17
2022-09-13T09:54:02.118Z,16
2022-09-13T09:55:01.087Z,18
2022-09-13T09:56:01.086Z,17
2022-09-13T09:57:01.112Z,18
2022-09-13T09:59:01.088Z,20
2022-09-13T10:00:01.088Z,20
2022-09-13T10:01:01.193Z,21
2022-09-13T10:02:01.186Z,19
2022-09-13T10:03:01.089Z,18
2022-09-13T10:04:01.092Z,19
2022-09-13T10:05:01.089Z,17
2022-09-13T10:07:01.094Z,18
2022-09-13T10:08:01.091Z,17
2022-09-13T10:09:01.087Z,16
2022-09-13T10:11:01.245Z,17
2022-09-13T10:12:01.089Z,16
2022-09-13T10:13:01.091Z,17
2022-09-13T10:14:01.090Z,16
2022-09-13T10:15:01.088Z,19
2022-09-13T10:16:01.117Z,17
2022-09-13T10:18:01.213Z,18
2022-09-13T10:19:01.088Z,19
2022-09-13T10:20:01.089Z,17
2022-09-13T10:21:01.088Z,18
2022-09-13T10:22:01.115Z,19
2022-09-13T10:23:01.099Z,17
2022-09-13T10:24:01.090Z,16
2022-09-13T10:26:01.106Z,15
2022-09-13T10:27:01.118Z,13
2022-09-13T10:28:01.091Z,16
2022-09-13T10:29:01.089Z,15
2022-09-13T10:30:01.089Z,17
2022-09-13T10:32:01.130Z,19
2022-09-13T10:33:01.087Z,20
2022-09-13T10:34:01.114Z,22
2022-09-13T10:35:01.090Z,21
2022-09-13T10:37:01.118Z,20
2022-09-13T10:38:01.090Z,18
2022-09-13T10:39:01.091Z,16
2022-09-13T10:43:01.247Z,18
2022-09-13T10:44:01.092Z,19
2022-09-13T10:45:01.182Z,18
2022-09-13T10:50:01.146Z,17
2022-09-13T10:52:01.156Z,18
2022-09-13T10:53:01.120Z,15
2022-09-13T10:56:01.093Z,14
2022-09-13T10:57:01.094Z,15
2022-09-13T10:58:01.121Z,16
2022-09-13T10:59:01.095Z,17
2022-09-13T11:00:01.094Z,19
2022-09-13T11:01:01.264Z,21
2022-09-13T11:02:01.104Z,19
2022-09-13T11:05:01.155Z,18
2022-09-13T11:06:01.280Z,17
2022-09-13T11:07:02.186Z,20
2022-09-13T11:08:01.238Z,19
2022-09-13T11:09:01.215Z,20
2022-09-13T11:10:01.127Z,22
2022-09-13T11:12:01.248Z,19
2022-09-13T11:13:01.119Z,18
2022-09-13T11:14:01.238Z,17
2022-09-13T11:16:01.109Z,15
2022-09-13T11:17:01.102Z,14
2022-09-13T11:19:01.229Z,15
2022-09-13T11:21:01.169Z,14
2022-09-13T11:22:01.283Z,16
2022-09-13T11:23:01.160Z,17
2022-09-13T11:24:01.192Z,16
2022-09-13T11:25:01.111Z,17
2022-09-13T11:26:01.096Z,16
2022-09-13T11:27:01.176Z,17
2022-09-13T11:28:01.169Z,18
2022-09-13T11:29:01.082Z,19
2022-09-13T11:30:01.111Z,18
2022-09-13T11:31:01.079Z,20
2022-09-13T11:32:01.151Z,18
2022-09-13T11:38:02.280Z,17
2022-09-13T11:39:01.078Z,18
2022-09-13T11:40:01.180Z,17
2022-09-13T11:41:01.106Z,18
2022-09-13T11:43:01.079Z,19
2022-09-13T11:45:01.079Z,20
2022-09-13T11:47:01.111Z,19
2022-09-13T11:49:01.081Z,17
2022-09-13T11:50:01.090Z,16
2022-09-13T11:54:01.169Z,17
2022-09-13T11:55:01.079Z,16
2022-09-13T11:56:01.080Z,17
2022-09-13T11:57:01.107Z,16
2022-09-13T11:58:01.081Z,15
2022-09-13T11:59:01.086Z,16
2022-09-13T12:00:01.082Z,17
2022-09-13T12:01:01.082Z,15
2022-09-13T12:02:01.219Z,16
2022-09-13T12:04:01.095Z,15
2022-09-13T12:06:01.083Z,17
2022-09-13T12:07:01.110Z,19
2022-09-13T12:08:01.087Z,18
2022-09-13T12:09:01.083Z,19
2022-09-13T12:10:01.120Z,20
2022-09-13T12:11:01.083Z,21
2022-09-13T12:12:01.109Z,19
2022-09-13T12:13:01.082Z,20
2022-09-13T12:14:01.093Z,21
2022-09-13T12:15:01.083Z,19
2022-09-13T12:16:01.083Z,17
2022-09-13T12:17:01.134Z,19
2022-09-13T12:18:02.109Z,20
2022-09-13T12:19:01.084Z,18
2022-09-13T12:20:01.088Z,21
2022-09-13T12:23:01.111Z,19
2022-09-13T12:24:01.082Z,20
2022-09-13T12:25:01.086Z,16
2022-09-13T12:26:01.118Z,17
2022-09-13T12:28:01.111Z,19
2022-09-13T12:29:01.083Z,18
2022-09-13T12:30:01.082Z,20
2022-09-13T12:31:01.084Z,19
2022-09-13T12:32:02.152Z,21
2022-09-13T12:34:01.083Z,22
2022-09-13T12:35:01.085Z,21
2022-09-13T12:37:01.171Z,20
2022-09-13T12:41:01.146Z,19
2022-09-13T12:42:01.194Z,17
2022-09-13T12:45:01.083Z,18
2022-09-13T12:48:01.082Z,19
2022-09-13T12:49:01.113Z,18
2022-09-13T12:51:01.084Z,19
2022-09-13T12:53:01.083Z,17
2022-09-13T12:54:01.118Z,18
2022-09-13T12:55:01.083Z,17
2022-09-13T12:56:01.084Z,16
2022-09-13T12:58:01.107Z,17
2022-09-13T12:59:01.083Z,15
2022-09-13T13:00:01.109Z,15
2022-09-13T13:01:01.195Z,18
2022-09-13T13:03:01.084Z,17
2022-09-13T13:04:01.084Z,18
2022-09-13T13:05:01.125Z,19
2022-09-13T13:06:01.084Z,17
2022-09-13T13:10:01.086Z,16
2022-09-13T13:11:01.084Z,15
2022-09-13T13:12:01.083Z,14
2022-09-13T13:13:01.084Z,15
2022-09-13T13:14:01.116Z,16
2022-09-13T13:15:01.085Z,18
2022-09-13T13:16:01.136Z,20
2022-09-13T13:19:01.091Z,19
2022-09-13T13:20:01.085Z,18
2022-09-13T13:21:01.084Z,17
2022-09-13T13:24:01.086Z,18
2022-09-13T13:25:01.304Z,16
2022-09-13T13:26:02.112Z,17
2022-09-13T13:28:01.085Z,18
2022-09-13T13:29:01.084Z,17
2022-09-13T13:30:01.198Z,18
2022-09-13T13:31:01.086Z,19
2022-09-13T13:32:01.141Z,18
2022-09-13T13:34:01.086Z,19
2022-09-13T13:35:01.086Z,21
2022-09-13T13:36:01.116Z,20
2022-09-13T13:38:01.086Z,19
2022-09-13T13:40:01.123Z,16
2022-09-13T13:42:01.245Z,15
2022-09-13T13:45:01.094Z,16
2022-09-13T13:47:01.143Z,18
2022-09-13T13:49:01.090Z,17
2022-09-13T13:50:01.135Z,14
2022-09-13T13:51:01.093Z,16
2022-09-13T13:52:01.121Z,15
2022-09-13T13:54:01.091Z,14
2022-09-13T13:55:01.093Z,16
2022-09-13T13:59:01.092Z,17
2022-09-13T14:00:01.117Z,16
2022-09-13T14:01:01.173Z,18
2022-09-13T14:02:01.121Z,17
2022-09-13T14:04:01.138Z,18
2022-09-13T14:05:01.096Z,17
2022-09-13T14:06:01.094Z,16
2022-09-13T14:07:03.132Z,17
2022-09-13T14:11:01.223Z,16
2022-09-13T14:14:01.104Z,14
2022-09-13T14:15:01.095Z,15
2022-09-13T14:18:01.122Z,14
2022-09-13T14:19:01.095Z,16
2022-09-13T14:20:01.209Z,15
2022-09-13T14:25:01.222Z,14
2022-09-13T14:26:01.108Z,15
2022-09-13T14:27:01.811Z,16
2022-09-13T14:30:01.092Z,17
2022-09-13T14:31:01.094Z,16
2022-09-13T14:33:01.123Z,17
2022-09-13T14:36:01.131Z,18
2022-09-13T14:37:01.101Z,19
2022-09-13T14:38:06.142Z,18
2022-09-13T14:40:01.142Z,19
2022-09-13T14:41:01.096Z,18
2022-09-13T14:43:01.142Z,19
2022-09-13T14:44:01.095Z,18
2022-09-13T14:45:01.106Z,17
2022-09-13T14:46:01.097Z,18
2022-09-13T14:47:01.159Z,17
2022-09-13T14:51:01.144Z,18
2022-09-13T14:53:01.111Z,19
2022-09-13T14:54:01.278Z,17
2022-09-13T14:55:01.085Z,18
2022-09-13T14:56:01.079Z,17
2022-09-13T14:58:01.146Z,16
2022-09-13T14:59:01.124Z,18
2022-09-13T15:00:01.081Z,18
2022-09-13T15:01:01.125Z,19
2022-09-13T15:02:03.081Z,20
2022-09-13T15:04:01.133Z,18
2022-09-13T15:06:01.082Z,17
2022-09-13T15:07:01.078Z,16
2022-09-13T15:08:01.082Z,15
2022-09-13T15:09:01.106Z,16
2022-09-13T15:11:01.209Z,15
2022-09-13T15:12:01.119Z,14
2022-09-13T15:13:01.083Z,15
2022-09-13T15:15:01.086Z,15
2022-09-13T15:17:01.079Z,17
2022-09-13T15:22:01.168Z,19
2022-09-13T15:24:01.077Z,20
2022-09-13T15:25:01.130Z,21
2022-09-13T15:27:01.153Z,19
2022-09-13T15:28:01.076Z,17
2022-09-13T15:29:01.077Z,16
2022-09-13T15:30:01.112Z,14
2022-09-13T15:31:01.082Z,13
2022-09-13T15:33:01.077Z,14
2022-09-13T15:34:01.151Z,15
2022-09-13T15:35:01.136Z,17
2022-09-13T15:36:01.077Z,19
2022-09-13T15:38:01.145Z,20
2022-09-13T15:39:01.144Z,18
2022-09-13T15:40:01.276Z,19
2022-09-13T15:41:01.187Z,17
2022-09-13T15:43:01.079Z,18
2022-09-13T15:44:01.143Z,19
2022-09-13T15:45:01.078Z,18
2022-09-13T15:46:01.076Z,19
2022-09-13T15:49:01.079Z,17
2022-09-13T15:51:01.143Z,16
2022-09-13T15:58:01.232Z,15
2022-09-13T16:00:05.732Z,16
2022-09-13T16:01:01.214Z,14
2022-09-13T16:02:01.138Z,13
2022-09-13T16:04:01.078Z,14
2022-09-13T16:07:01.076Z,17
2022-09-13T16:08:01.077Z,18
2022-09-13T16:09:01.080Z,19
2022-09-13T16:15:01.228Z,19
2022-09-13T16:17:01.077Z,18
2022-09-13T16:18:01.076Z,19
2022-09-13T16:19:01.076Z,18
2022-09-13T16:22:01.141Z,19
2022-09-13T16:23:01.078Z,16
2022-09-13T16:26:01.078Z,14
2022-09-13T16:28:01.078Z,15
2022-09-13T16:30:01.143Z,14
2022-09-13T16:31:01.257Z,15
2022-09-13T16:32:01.143Z,14
2022-09-13T16:33:01.079Z,15
2022-09-13T16:34:01.086Z,16
2022-09-13T16:35:01.080Z,17
2022-09-13T16:36:02.387Z,18
2022-09-13T16:38:01.095Z,17
2022-09-13T16:39:01.078Z,18
2022-09-13T16:40:02.183Z,17
2022-09-13T16:43:01.144Z,18
2022-09-13T16:44:01.081Z,17
2022-09-13T16:45:01.080Z,17
2022-09-13T16:46:01.082Z,15
2022-09-13T16:47:01.247Z,16
2022-09-13T16:49:01.080Z,15
2022-09-13T16:50:01.082Z,16
2022-09-13T16:51:01.150Z,17
2022-09-13T16:54:01.083Z,18
2022-09-13T16:57:01.084Z,17
2022-09-13T17:00:01.086Z,18
2022-09-13T17:01:01.086Z,19
2022-09-13T17:02:01.151Z,20
2022-09-13T17:03:01.252Z,22
2022-09-13T17:04:01.087Z,21
2022-09-13T17:05:01.087Z,19
2022-09-13T17:07:01.086Z,20
2022-09-13T17:08:01.092Z,19
2022-09-13T17:11:01.175Z,16
2022-09-13T17:12:01.088Z,15
2022-09-13T17:13:01.089Z,13
2022-09-13T17:15:01.086Z,14
2022-09-13T17:16:01.137Z,15
2022-09-13T17:17:01.087Z,14
2022-09-13T17:19:01.115Z,18
2022-09-13T17:20:01.088Z,16
2022-09-13T17:23:01.216Z,17
2022-09-13T17:24:01.088Z,14
2022-09-13T17:25:01.089Z,15
2022-09-13T17:26:01.090Z,17
2022-09-13T17:27:01.090Z,20
2022-09-13T17:28:01.094Z,21
2022-09-13T17:30:01.234Z,18
2022-09-13T17:31:02.640Z,16
2022-09-13T17:32:01.092Z,14
2022-09-13T17:33:01.089Z,15
2022-09-13T17:34:01.089Z,13
2022-09-13T17:35:01.195Z,15
2022-09-13T17:38:01.088Z,12
2022-09-13T17:39:01.097Z,14
2022-09-13T17:41:01.090Z,15
2022-09-13T17:42:01.091Z,14
2022-09-13T17:43:01.093Z,16
2022-09-13T17:45:01.139Z,17
2022-09-13T17:46:01.125Z,16
2022-09-13T17:47:01.091Z,17
2022-09-13T17:49:01.090Z,16
2022-09-13T17:50:01.090Z,17
2022-09-13T17:51:01.119Z,16
2022-09-13T17:57:01.100Z,15
2022-09-13T17:59:01.108Z,16
2022-09-13T18:00:01.158Z,15
2022-09-13T18:01:01.228Z,16
2022-09-13T18:02:01.369Z,18
2022-09-13T18:03:01.317Z,19
2022-09-13T18:04:01.202Z,21
2022-09-13T18:07:01.268Z,19
2022-09-13T18:08:01.164Z,16
2022-09-13T18:09:01.110Z,14
2022-09-13T18:10:01.147Z,13
2022-09-13T18:11:12.607Z,12
2022-09-13T18:12:01.193Z,14
2022-09-13T18:13:01.091Z,16
2022-09-13T18:14:01.203Z,17
2022-09-13T18:15:06.142Z,19
2022-09-13T18:16:01.149Z,20
2022-09-13T18:18:01.091Z,21
2022-09-13T18:19:01.091Z,20
2022-09-13T18:20:01.131Z,18
2022-09-13T18:22:01.220Z,17
2022-09-13T18:23:01.121Z,16
2022-09-13T18:25:01.091Z,17
2022-09-13T18:29:01.099Z,16
2022-09-13T18:30:01.105Z,17
2022-09-13T18:31:01.130Z,15
2022-09-13T18:33:01.177Z,14
2022-09-13T18:34:01.098Z,15
2022-09-13T18:36:01.219Z,16
2022-09-13T18:37:01.096Z,15
2022-09-13T18:38:01.159Z,16
2022-09-13T18:39:01.208Z,15
2022-09-13T18:40:01.306Z,14
2022-09-13T18:41:01.139Z,16
2022-09-13T18:42:01.329Z,17
2022-09-13T18:44:01.160Z,18
2022-09-13T18:45:01.241Z,19
2022-09-13T18:46:01.184Z,18
2022-09-13T18:47:01.095Z,19
2022-09-13T18:49:01.336Z,21
2022-09-13T18:50:01.302Z,20
2022-09-13T18:51:01.094Z,19
2022-09-13T18:53:01.094Z,20
2022-09-13T18:57:01.249Z,19
2022-09-13T18:59:01.121Z,18
2022-09-13T19:00:06.128Z,17
2022-09-13T19:01:01.098Z,19
2022-09-13T19:02:01.195Z,18
2022-09-13T19:03:11.623Z,15
2022-09-13T19:05:03.343Z,14
2022-09-13T19:07:01.095Z,15
2022-09-13T19:08:01.110Z,16
2022-09-13T19:09:01.098Z,15
2022-09-13T19:10:01.123Z,16
2022-09-13T19:11:01.095Z,17
2022-09-13T19:12:01.097Z,16
2022-09-13T19:14:01.122Z,17
2022-09-13T19:15:01.125Z,15
2022-09-13T19:16:01.211Z,14
2022-09-13T19:17:01.182Z,15
2022-09-13T19:22:01.160Z,16
2022-09-13T19:23:01.099Z,18
2022-09-13T19:24:04.152Z,20
2022-09-13T19:25:01.127Z,21
2022-09-13T19:27:01.082Z,20
2022-09-13T19:28:01.081Z,21
2022-09-13T19:29:01.082Z,20
2022-09-13T19:30:01.149Z,19
2022-09-13T19:31:01.154Z,17
2022-09-13T19:32:01.080Z,20
2022-09-13T19:33:01.084Z,16
2022-09-13T19:34:01.080Z,15
2022-09-13T19:37:01.079Z,13
2022-09-13T19:38:01.087Z,14
2022-09-13T19:40:01.151Z,13
2022-09-13T19:41:01.080Z,14
2022-09-13T19:42:01.100Z,15
2022-09-13T19:43:01.167Z,16
2022-09-13T19:45:01.079Z,19
2022-09-13T19:46:01.124Z,18
2022-09-13T19:48:36.840Z,16
2022-09-13T19:49:01.067Z,18
2022-09-13T19:50:01.087Z,17
2022-09-13T19:51:01.081Z,20
2022-09-13T19:53:01.081Z,22
2022-09-13T19:54:02.180Z,21
2022-09-13T19:55:01.090Z,20
2022-09-13T19:56:01.082Z,19
2022-09-13T19:59:01.084Z,16
2022-09-13T20:00:01.083Z,15
2022-09-13T20:01:01.129Z,17
2022-09-13T20:02:01.107Z,16
2022-09-13T20:04:01.086Z,18
2022-09-13T20:05:01.157Z,20
2022-09-13T20:06:01.084Z,19
2022-09-13T20:07:01.085Z,18
2022-09-13T20:10:01.114Z,19
2022-09-13T20:12:01.149Z,20
2022-09-13T20:13:01.087Z,21
2022-09-13T20:14:01.088Z,22
2022-09-13T20:15:01.131Z,20
2022-09-13T20:16:01.114Z,18
2022-09-13T20:18:01.110Z,16
2022-09-13T20:19:01.084Z,14
2022-09-13T20:21:01.086Z,16
2022-09-13T20:22:01.086Z,17
2022-09-13T20:23:01.085Z,19
2022-09-13T20:24:01.085Z,20
2022-09-13T20:26:01.094Z,19
2022-09-13T20:28:01.088Z,18